Time;durP1;ratioP1;P1;durP2;ratioP2;P2;SDS_P1;SDS_P2;PMS_P1;PMS_P2;Temp;Humidity;BMP_temperature;BMP_pressure;BME280_temperature;BME280_humidity;BME280_pressure;Samples;Min_cycle;Max_cycle;Signal;HPM_P1;HPM_P2
2022/02/22 00:01:37;;;;;;;;;19.25;11.25;;;;;;;;5042574;28;51520;-47
2022/02/22 00:04:22;;;;;;;;;21.50;15.00;;;;;;;;5046699;28;51745;-45
2022/02/22 00:07:08;;;;;;;;;13.75;11.25;;;;;;;;5043768;28;51107;-44
2022/02/22 00:09:55;;;;;;;;;21.25;17.00;;;;;;;;5042887;28;51068;-46
2022/02/22 00:12:39;;;;;;;;;15.00;15.00;;;;;;;;5044044;28;50943;-46
2022/02/22 00:15:27;;;;;;;;;16.00;14.75;;;;;;;;5044616;28;51151;-47
2022/02/22 00:18:23;;;;;;;;;17.00;14.00;;;;;;;;5046053;28;52503;-48
2022/02/22 00:21:12;;;;;;;;;14.00;14.00;;;;;;;;5051005;28;51186;-48
2022/02/22 00:23:56;;;;;;;;;17.00;13.75;;;;;;;;5031007;28;51371;-48
2022/02/22 00:26:40;;;;;;;;;17.50;15.75;;;;;;;;5043769;28;51563;-48
2022/02/22 00:29:25;;;;;;;;;13.25;10.75;;;;;;;;5043761;28;51501;-47
2022/02/22 00:32:10;;;;;;;;;13.25;13.25;;;;;;;;5052323;28;51198;-49
2022/02/22 00:35:05;;;;;;;;;17.00;14.25;;;;;;;;5045547;28;51355;-47
2022/02/22 00:38:01;;;;;;;;;18.75;13.75;;;;;;;;5045974;28;51182;-46
2022/02/22 00:40:56;;;;;;;;;18.50;14.00;;;;;;;;5042282;28;50984;-44
2022/02/22 00:43:40;;;;;;;;;18.50;16.00;;;;;;;;5050081;28;51064;-44
2022/02/22 00:46:25;;;;;;;;;17.75;15.25;;;;;;;;5045099;28;51086;-46
2022/02/22 00:49:15;;;;;;;;;16.00;15.25;;;;;;;;5046083;28;51138;-46
2022/02/22 00:52:01;;;;;;;;;16.75;13.75;;;;;;;;5049918;28;51048;-48
2022/02/22 00:54:47;;;;;;;;;17.25;13.75;;;;;;;;5042869;28;51132;-45
2022/02/22 00:57:43;;;;;;;;;16.75;14.50;;;;;;;;5043102;28;51258;-47
2022/02/22 01:00:29;;;;;;;;;16.75;14.25;;;;;;;;5048206;28;51189;-47
2022/02/22 01:03:18;;;;;;;;;19.75;15.25;;;;;;;;5042130;28;51204;-47
2022/02/22 01:06:03;;;;;;;;;18.75;16.25;;;;;;;;5048997;28;51175;-49
2022/02/22 01:08:48;;;;;;;;;18.00;14.75;;;;;;;;5044115;28;52918;-45
2022/02/22 01:11:33;;;;;;;;;19.75;17.00;;;;;;;;5047224;28;51040;-46
2022/02/22 01:14:17;;;;;;;;;20.50;17.00;;;;;;;;5044099;28;51017;-49
2022/02/22 01:17:02;;;;;;;;;15.00;13.50;;;;;;;;5045491;28;51445;-48
2022/02/22 01:19:48;;;;;;;;;17.25;13.50;;;;;;;;5042412;28;51396;-47
2022/02/22 01:22:36;;;;;;;;;15.50;13.50;;;;;;;;5048009;28;51098;-48
2022/02/22 01:25:29;;;;;;;;;15.25;13.50;;;;;;;;5061520;28;51078;-47
2022/02/22 01:28:14;;;;;;;;;20.50;17.75;;;;;;;;5046474;28;51401;-43
2022/02/22 01:30:58;;;;;;;;;18.75;16.50;;;;;;;;5061064;28;51072;-47
2022/02/22 01:33:43;;;;;;;;;16.75;14.75;;;;;;;;5060868;28;51149;-44
2022/02/22 01:36:29;;;;;;;;;15.75;15.25;;;;;;;;5046544;28;51372;-47
2022/02/22 01:39:14;;;;;;;;;17.00;16.25;;;;;;;;5041049;28;51026;-47
2022/02/22 01:42:00;;;;;;;;;19.25;16.75;;;;;;;;5040614;28;51174;-45
2022/02/22 01:44:58;;;;;;;;;16.25;13.75;;;;;;;;5040659;28;51364;-45
2022/02/22 01:47:43;;;;;;;;;20.50;16.00;;;;;;;;5040639;28;51142;-45
2022/02/22 01:50:27;;;;;;;;;16.00;14.25;;;;;;;;5042971;28;52577;-48
2022/02/22 01:53:17;;;;;;;;;18.50;17.00;;;;;;;;5045959;28;51418;-46
2022/02/22 01:56:13;;;;;;;;;17.00;12.25;;;;;;;;5043279;28;51217;-44
2022/02/22 01:58:57;;;;;;;;;19.50;14.25;;;;;;;;5044740;28;51198;-45
2022/02/22 02:01:41;;;;;;;;;18.75;16.00;;;;;;;;5046494;28;51199;-47
2022/02/22 02:04:30;;;;;;;;;16.50;14.50;;;;;;;;5047018;28;51191;-50
2022/02/22 02:07:21;;;;;;;;;15.00;13.00;;;;;;;;5044056;28;51394;-45
2022/02/22 02:10:07;;;;;;;;;20.75;16.25;;;;;;;;5045768;28;51417;-47
2022/02/22 02:12:55;;;;;;;;;16.75;14.75;;;;;;;;5043793;28;51848;-43
2022/02/22 02:16:05;;;;;;;;;16.75;13.00;;;;;;;;5040971;28;51144;-49
2022/02/22 02:18:49;;;;;;;;;19.00;13.75;;;;;;;;5045358;28;51183;-46
2022/02/22 02:21:36;;;;;;;;;17.50;14.25;;;;;;;;5046038;28;51483;-48
2022/02/22 02:24:22;;;;;;;;;22.25;17.00;;;;;;;;5039112;28;51198;-49
2022/02/22 02:27:18;;;;;;;;;14.75;13.25;;;;;;;;5043244;28;51200;-47
2022/02/22 02:30:03;;;;;;;;;20.50;17.25;;;;;;;;5043128;28;51537;-49
2022/02/22 02:32:47;;;;;;;;;20.50;15.50;;;;;;;;5047897;28;51292;-44
2022/02/22 02:35:32;;;;;;;;;20.25;17.75;;;;;;;;5040844;28;51008;-46
2022/02/22 02:38:23;;;;;;;;;19.75;17.75;;;;;;;;5044344;28;51216;-44
2022/02/22 02:41:08;;;;;;;;;17.00;14.25;;;;;;;;5039831;28;51104;-43
2022/02/22 02:43:53;;;;;;;;;20.00;16.25;;;;;;;;5042491;28;51949;-45
2022/02/22 02:46:38;;;;;;;;;24.50;21.50;;;;;;;;5038001;28;51176;-45
2022/02/22 02:49:23;;;;;;;;;26.75;19.50;;;;;;;;5041368;28;51495;-45
2022/02/22 02:52:11;;;;;;;;;26.00;21.00;;;;;;;;5047274;28;51210;-48
2022/02/22 02:54:55;;;;;;;;;23.00;18.00;;;;;;;;5038610;28;51031;-44
2022/02/22 02:57:53;;;;;;;;;21.75;19.75;;;;;;;;5041065;28;51147;-47
2022/02/22 03:00:39;;;;;;;;;25.50;20.50;;;;;;;;5044877;28;51071;-45
2022/02/22 03:03:24;;;;;;;;;18.25;18.25;;;;;;;;5040802;28;51108;-49
2022/02/22 03:06:10;;;;;;;;;20.50;20.00;;;;;;;;5040487;28;50989;-47
2022/02/22 03:08:54;;;;;;;;;24.25;18.00;;;;;;;;5038889;28;51159;-46
2022/02/22 03:11:40;;;;;;;;;19.75;18.50;;;;;;;;5044385;28;52586;-45
2022/02/22 03:14:25;;;;;;;;;24.50;20.25;;;;;;;;5039175;28;51121;-49
2022/02/22 03:17:16;;;;;;;;;22.75;16.75;;;;;;;;5040649;28;51130;-48
2022/02/22 03:20:10;;;;;;;;;21.00;21.00;;;;;;;;5042692;28;51088;-47
2022/02/22 03:22:54;;;;;;;;;19.75;18.25;;;;;;;;5033653;28;51390;-47
2022/02/22 03:25:39;;;;;;;;;23.75;18.75;;;;;;;;5043377;28;51209;-47
2022/02/22 03:28:24;;;;;;;;;23.75;18.50;;;;;;;;5040829;28;52402;-47
2022/02/22 03:31:08;;;;;;;;;20.50;17.50;;;;;;;;5045500;28;50946;-43
2022/02/22 03:33:54;;;;;;;;;19.00;15.75;;;;;;;;5042602;28;51211;-47
2022/02/22 03:36:40;;;;;;;;;22.75;17.75;;;;;;;;5054980;28;51095;-48
2022/02/22 03:39:47;;;;;;;;;18.75;14.50;;;;;;;;5055558;28;51501;-45
2022/02/22 03:42:33;;;;;;;;;19.00;15.75;;;;;;;;5045635;28;51077;-45
2022/02/22 03:45:17;;;;;;;;;18.25;14.50;;;;;;;;5046894;28;51289;-47
2022/02/22 03:48:07;;;;;;;;;15.00;15.00;;;;;;;;5049809;28;51110;-46
2022/02/22 03:50:56;;;;;;;;;22.25;18.00;;;;;;;;5054154;28;51787;-47
2022/02/22 03:53:52;;;;;;;;;26.00;18.75;;;;;;;;5047636;28;51594;-46
2022/02/22 03:57:02;;;;;;;;;21.00;18.00;;;;;;;;5049497;28;51216;-43
2022/02/22 03:59:49;;;;;;;;;22.00;16.00;;;;;;;;5046476;28;51475;-45
2022/02/22 04:02:42;;;;;;;;;16.25;16.00;;;;;;;;5045699;28;51143;-48
2022/02/22 04:05:26;;;;;;;;;23.00;16.75;;;;;;;;5043670;28;51809;-44
2022/02/22 04:08:11;;;;;;;;;16.50;16.50;;;;;;;;5047196;28;51177;-44
2022/02/22 04:10:55;;;;;;;;;21.00;17.50;;;;;;;;5045561;28;51426;-47
2022/02/22 04:13:40;;;;;;;;;21.75;19.50;;;;;;;;5047084;28;51183;-47
2022/02/22 04:16:25;;;;;;;;;25.50;20.25;;;;;;;;5046554;28;51361;-46
2022/02/22 04:19:14;;;;;;;;;27.00;22.00;;;;;;;;5046321;28;51150;-47
2022/02/22 04:22:02;;;;;;;;;23.00;18.75;;;;;;;;5048341;28;51222;-47
2022/02/22 04:24:46;;;;;;;;;25.50;18.50;;;;;;;;5045694;28;51140;-47
2022/02/22 04:27:36;;;;;;;;;18.75;16.75;;;;;;;;5047057;28;51093;-47
2022/02/22 04:30:29;;;;;;;;;21.75;18.50;;;;;;;;5043850;28;51545;-45
2022/02/22 04:33:15;;;;;;;;;24.75;21.75;;;;;;;;5055338;28;52291;-47
2022/02/22 04:36:09;;;;;;;;;30.25;26.00;;;;;;;;5042390;28;51465;-45
2022/02/22 04:38:56;;;;;;;;;28.00;26.25;;;;;;;;5044587;28;51072;-49
2022/02/22 04:41:50;;;;;;;;;30.25;25.00;;;;;;;;5050946;28;51436;-50
2022/02/22 04:44:36;;;;;;;;;25.25;20.00;;;;;;;;5041961;28;51052;-47
2022/02/22 04:47:35;;;;;;;;;32.75;25.75;;;;;;;;5042286;28;51070;-46
2022/02/22 04:50:27;;;;;;;;;30.25;21.25;;;;;;;;5041635;28;51368;-49
2022/02/22 04:53:12;;;;;;;;;24.75;19.25;;;;;;;;5047376;28;51544;-45
2022/02/22 04:55:59;;;;;;;;;22.50;20.75;;;;;;;;5041774;28;51169;-45
2022/02/22 04:58:47;;;;;;;;;31.50;24.50;;;;;;;;5050663;28;51130;-44
2022/02/22 05:01:42;;;;;;;;;25.50;22.00;;;;;;;;5040912;28;51563;-45
2022/02/22 05:04:27;;;;;;;;;24.50;20.75;;;;;;;;5043432;28;51511;-48
2022/02/22 05:07:11;;;;;;;;;28.75;21.25;;;;;;;;5044465;28;51123;-43
2022/02/22 05:09:56;;;;;;;;;24.25;20.25;;;;;;;;5033557;28;51194;-47
2022/02/22 05:12:42;;;;;;;;;25.25;21.00;;;;;;;;5042018;28;51203;-44
2022/02/22 05:15:32;;;;;;;;;25.50;19.50;;;;;;;;5044538;28;51328;-48
2022/02/22 05:18:20;;;;;;;;;26.75;24.25;;;;;;;;5043793;28;51069;-46
2022/02/22 05:21:05;;;;;;;;;28.50;26.00;;;;;;;;5042317;28;51492;-44
2022/02/22 05:24:00;;;;;;;;;38.50;27.25;;;;;;;;5042754;28;51155;-48
2022/02/22 05:26:48;;;;;;;;;31.00;26.50;;;;;;;;5040902;28;51418;-45
2022/02/22 05:29:31;;;;;;;;;30.75;24.25;;;;;;;;5044337;28;51162;-44
2022/02/22 05:32:17;;;;;;;;;24.25;21.25;;;;;;;;5041770;28;51463;-48
2022/02/22 05:35:03;;;;;;;;;32.00;23.75;;;;;;;;5041995;28;51092;-43
2022/02/22 05:37:56;;;;;;;;;30.25;22.50;;;;;;;;5040920;28;51072;-47
2022/02/22 05:40:42;;;;;;;;;24.50;20.25;;;;;;;;5040765;28;51116;-45
2022/02/22 05:43:49;;;;;;;;;21.50;21.50;;;;;;;;5048278;28;51159;-46
2022/02/22 05:46:35;;;;;;;;;31.00;25.75;;;;;;;;5045463;28;51066;-48
2022/02/22 05:49:32;;;;;;;;;29.00;24.00;;;;;;;;5046663;28;51052;-43
2022/02/22 05:52:18;;;;;;;;;30.25;26.50;;;;;;;;5044309;28;51399;-49
2022/02/22 05:55:04;;;;;;;;;29.00;24.25;;;;;;;;5040479;28;51157;-46
2022/02/22 05:57:49;;;;;;;;;34.00;26.00;;;;;;;;5048708;28;51654;-47
2022/02/22 06:00:36;;;;;;;;;43.75;32.00;;;;;;;;5043717;28;51038;-47
2022/02/22 06:03:21;;;;;;;;;46.50;35.00;;;;;;;;5043467;28;51647;-45
2022/02/22 06:06:06;;;;;;;;;39.00;32.00;;;;;;;;5045490;28;51742;-45
2022/02/22 06:09:14;;;;;;;;;37.50;30.75;;;;;;;;5048368;28;51417;-45
2022/02/22 06:11:59;;;;;;;;;32.00;28.75;;;;;;;;5048876;28;51612;-46
2022/02/22 06:14:44;;;;;;;;;34.50;30.25;;;;;;;;5050414;28;51158;-45
2022/02/22 06:17:32;;;;;;;;;36.00;30.50;;;;;;;;5053000;28;52551;-46
2022/02/22 06:20:16;;;;;;;;;35.50;31.00;;;;;;;;5052075;28;51123;-46
2022/02/22 06:23:01;;;;;;;;;38.25;30.75;;;;;;;;5049612;28;51154;-44
2022/02/22 06:25:54;;;;;;;;;38.00;32.00;;;;;;;;5034082;28;51214;-56
2022/02/22 06:28:38;;;;;;;;;47.25;36.50;;;;;;;;5044405;28;51260;-55
2022/02/22 06:31:24;;;;;;;;;50.00;37.75;;;;;;;;5042936;28;51171;-53
2022/02/22 06:34:24;;;;;;;;;49.25;38.25;;;;;;;;5045024;28;51092;-53
2022/02/22 06:37:08;;;;;;;;;41.50;32.25;;;;;;;;5057130;28;51172;-55
2022/02/22 06:40:15;;;;;;;;;39.50;32.00;;;;;;;;5053268;28;51360;-53
2022/02/22 06:42:59;;;;;;;;;47.25;32.75;;;;;;;;5055363;28;51118;-58
2022/02/22 06:45:43;;;;;;;;;39.25;33.50;;;;;;;;5056925;28;52111;-55
2022/02/22 06:48:30;;;;;;;;;30.00;27.50;;;;;;;;5058140;28;51048;-51
2022/02/22 06:51:15;;;;;;;;;39.75;34.00;;;;;;;;5044650;28;51245;-54
2022/02/22 06:54:06;;;;;;;;;47.50;35.50;;;;;;;;5038911;28;51579;-52
2022/02/22 06:56:50;;;;;;;;;40.75;32.00;;;;;;;;5038820;28;51415;-53
2022/02/22 06:59:38;;;;;;;;;46.00;35.50;;;;;;;;5038803;28;50988;-51
2022/02/22 07:02:33;;;;;;;;;43.25;32.75;;;;;;;;5038028;28;51152;-53
2022/02/22 07:05:20;;;;;;;;;44.75;35.00;;;;;;;;5038687;28;51346;-52
2022/02/22 07:08:05;;;;;;;;;44.25;33.25;;;;;;;;5051770;28;51530;-55
2022/02/22 07:10:50;;;;;;;;;45.75;34.00;;;;;;;;5030726;28;51554;-53
2022/02/22 07:13:35;;;;;;;;;42.25;33.75;;;;;;;;5044313;28;51202;-54
2022/02/22 07:16:20;;;;;;;;;11.25;10.25;;;;;;;;5036973;28;51456;-56
2022/02/22 07:19:10;;;;;;;;;44.75;35.25;;;;;;;;5040610;28;51237;-56
2022/02/22 07:21:54;;;;;;;;;44.75;33.75;;;;;;;;5044905;28;51115;-55
2022/02/22 07:24:40;;;;;;;;;47.25;34.50;;;;;;;;5046622;28;52196;-54
2022/02/22 07:27:25;;;;;;;;;38.75;32.00;;;;;;;;5041766;28;52306;-56
2022/02/22 07:30:14;;;;;;;;;40.25;31.25;;;;;;;;5037903;28;52264;-56
2022/02/22 07:33:03;;;;;;;;;41.00;33.00;;;;;;;;5041783;28;51295;-54
2022/02/22 07:35:52;;;;;;;;;36.25;32.00;;;;;;;;5038695;28;51431;-52
2022/02/22 07:38:38;;;;;;;;;45.00;34.25;;;;;;;;5048606;28;51608;-51
2022/02/22 07:41:27;;;;;;;;;44.00;34.25;;;;;;;;5038909;28;51064;-54
2022/02/22 07:44:11;;;;;;;;;41.75;34.25;;;;;;;;5040271;28;51135;-55
2022/02/22 07:46:56;;;;;;;;;45.25;34.00;;;;;;;;5058679;28;51533;-52
2022/02/22 07:49:45;;;;;;;;;43.25;33.50;;;;;;;;5038239;28;50985;-55
2022/02/22 07:52:31;;;;;;;;;37.25;31.00;;;;;;;;5038477;28;51063;-53
2022/02/22 07:55:16;;;;;;;;;42.75;33.25;;;;;;;;5039155;28;51128;-56
2022/02/22 07:58:03;;;;;;;;;35.25;30.00;;;;;;;;5050166;28;52491;-53
2022/02/22 08:00:48;;;;;;;;;38.00;31.25;;;;;;;;5038281;28;51357;-55
2022/02/22 08:03:36;;;;;;;;;30.25;29.00;;;;;;;;5039905;28;51703;-51
2022/02/22 08:06:22;;;;;;;;;30.75;27.75;;;;;;;;5047806;28;51635;-51
2022/02/22 08:09:06;;;;;;;;;29.00;26.75;;;;;;;;5058338;28;51126;-54
2022/02/22 08:11:51;;;;;;;;;32.75;28.50;;;;;;;;5051681;28;51541;-55
2022/02/22 08:14:36;;;;;;;;;24.00;21.00;;;;;;;;5038568;28;51188;-54
2022/02/22 08:17:20;;;;;;;;;30.75;25.75;;;;;;;;5043798;28;51104;-54
2022/02/22 08:20:05;;;;;;;;;29.00;23.00;;;;;;;;5045120;28;51029;-56
2022/02/22 08:22:51;;;;;;;;;24.50;19.75;;;;;;;;5044078;28;51009;-55
2022/02/22 08:25:36;;;;;;;;;21.25;20.00;;;;;;;;5041554;28;51119;-54
2022/02/22 08:28:20;;;;;;;;;28.75;23.75;;;;;;;;5052400;28;51487;-55
2022/02/22 08:31:05;;;;;;;;;25.25;20.50;;;;;;;;5061912;28;51172;-52
2022/02/22 08:33:49;;;;;;;;;27.00;23.00;;;;;;;;5056251;28;51195;-52
2022/02/22 08:36:34;;;;;;;;;22.25;19.00;;;;;;;;5045352;28;51218;-51
2022/02/22 08:39:18;;;;;;;;;22.25;19.00;;;;;;;;5061847;28;51405;-55
2022/02/22 08:42:06;;;;;;;;;24.00;22.00;;;;;;;;5061800;28;52469;-55
2022/02/22 08:44:57;;;;;;;;;23.25;19.25;;;;;;;;5062056;28;51257;-51
2022/02/22 08:47:41;;;;;;;;;23.50;22.00;;;;;;;;5061364;28;51075;-51
2022/02/22 08:50:26;;;;;;;;;19.00;15.75;;;;;;;;5061434;28;51043;-53
2022/02/22 08:53:12;;;;;;;;;22.25;18.75;;;;;;;;5061390;28;51382;-51
2022/02/22 08:55:59;;;;;;;;;21.00;16.50;;;;;;;;5054009;28;51202;-55
2022/02/22 08:58:43;;;;;;;;;16.75;14.00;;;;;;;;5049309;28;51418;-53
2022/02/22 09:01:27;;;;;;;;;25.00;21.75;;;;;;;;5048736;28;51329;-55
2022/02/22 09:04:12;;;;;;;;;22.00;20.25;;;;;;;;5051799;28;51625;-54
2022/02/22 09:06:57;;;;;;;;;21.50;20.50;;;;;;;;5052587;28;51144;-54
2022/02/22 09:09:42;;;;;;;;;24.00;19.50;;;;;;;;5042472;28;51071;-52
2022/02/22 09:12:28;;;;;;;;;22.00;18.00;;;;;;;;5041315;28;51434;-54
2022/02/22 09:15:14;;;;;;;;;17.00;16.25;;;;;;;;5040526;28;51176;-54
2022/02/22 09:18:01;;;;;;;;;22.00;18.50;;;;;;;;5036956;28;51932;-55
2022/02/22 09:20:57;;;;;;;;;26.00;19.50;;;;;;;;5050425;28;51128;-51
2022/02/22 09:23:42;;;;;;;;;23.00;20.25;;;;;;;;5046197;28;51116;-53
2022/02/22 09:26:27;;;;;;;;;24.75;20.00;;;;;;;;5040044;28;51375;-52
2022/02/22 09:29:12;;;;;;;;;25.75;22.75;;;;;;;;5040659;28;51698;-56
2022/02/22 09:31:58;;;;;;;;;20.50;19.25;;;;;;;;5039720;28;51345;-53
2022/02/22 09:34:43;;;;;;;;;32.00;27.75;;;;;;;;5040444;28;50859;-55
2022/02/22 09:37:50;;;;;;;;;31.75;26.50;;;;;;;;5043110;28;51159;-52
2022/02/22 09:40:46;;;;;;;;;23.50;21.75;;;;;;;;5042422;28;51428;-54
2022/02/22 09:43:34;;;;;;;;;25.25;20.25;;;;;;;;5040273;28;51202;-54
2022/02/22 09:46:38;;;;;;;;;25.00;21.50;;;;;;;;5035385;28;51316;-54
2022/02/22 09:49:32;;;;;;;;;21.50;18.25;;;;;;;;5048001;28;52085;-52
2022/02/22 09:52:28;;;;;;;;;17.50;17.00;;;;;;;;5053266;28;51189;-55
2022/02/22 09:55:16;;;;;;;;;22.00;20.25;;;;;;;;5060321;28;51667;-52
2022/02/22 09:58:00;;;;;;;;;26.25;21.75;;;;;;;;5060070;28;50984;-54
2022/02/22 10:01:12;;;;;;;;;27.25;25.00;;;;;;;;5055049;28;51020;-51
2022/02/22 10:04:07;;;;;;;;;27.50;20.50;;;;;;;;5041346;28;51380;-52
2022/02/22 10:07:00;;;;;;;;;17.25;16.75;;;;;;;;5046663;28;51186;-54
2022/02/22 10:10:08;;;;;;;;;21.50;15.50;;;;;;;;5038859;28;51434;-53
2022/02/22 10:13:03;;;;;;;;;20.00;17.50;;;;;;;;5049590;28;51162;-55
2022/02/22 10:15:49;;;;;;;;;22.00;16.50;;;;;;;;5047136;28;52089;-54
2022/02/22 10:18:46;;;;;;;;;24.25;20.00;;;;;;;;5044291;28;51369;-52
2022/02/22 10:21:40;;;;;;;;;26.25;19.75;;;;;;;;5038740;28;51167;-51
2022/02/22 10:24:33;;;;;;;;;19.75;17.75;;;;;;;;5042963;28;51119;-51
2022/02/22 10:27:18;;;;;;;;;22.00;16.50;;;;;;;;5043236;28;51025;-53
2022/02/22 10:30:03;;;;;;;;;19.75;19.00;;;;;;;;5043346;28;51288;-53
2022/02/22 10:32:53;;;;;;;;;22.75;20.50;;;;;;;;5040574;28;51139;-52
2022/02/22 10:35:38;;;;;;;;;22.50;21.50;;;;;;;;5044658;28;52411;-52
2022/02/22 10:38:25;;;;;;;;;26.50;21.00;;;;;;;;5049645;28;51712;-51
2022/02/22 10:41:15;;;;;;;;;26.00;20.00;;;;;;;;5059025;28;51153;-50
2022/02/22 10:44:02;;;;;;;;;21.50;20.00;;;;;;;;5058628;28;51492;-53
2022/02/22 10:46:50;;;;;;;;;28.00;21.75;;;;;;;;5058856;28;51572;-56
2022/02/22 10:49:37;;;;;;;;;27.75;23.75;;;;;;;;5058057;28;51122;-52
2022/02/22 10:52:29;;;;;;;;;22.75;22.75;;;;;;;;5051155;28;51087;-55
2022/02/22 10:55:16;;;;;;;;;21.00;20.75;;;;;;;;5048608;28;51345;-55
2022/02/22 10:58:13;;;;;;;;;27.00;23.75;;;;;;;;5046273;28;52957;-53
2022/02/22 11:01:08;;;;;;;;;29.00;25.00;;;;;;;;5045741;28;51519;-54
2022/02/22 11:03:54;;;;;;;;;23.25;22.75;;;;;;;;5042642;28;51147;-53
2022/02/22 11:06:39;;;;;;;;;25.25;20.75;;;;;;;;5046040;28;51141;-51
2022/02/22 11:09:24;;;;;;;;;25.00;21.00;;;;;;;;5050208;28;51658;-51
2022/02/22 11:12:23;;;;;;;;;31.25;25.00;;;;;;;;5049053;28;51498;-56
2022/02/22 11:15:11;;;;;;;;;25.50;23.50;;;;;;;;5044319;28;51219;-52
2022/02/22 11:17:57;;;;;;;;;25.75;22.25;;;;;;;;5051491;28;51143;-54
2022/02/22 11:20:41;;;;;;;;;22.75;20.75;;;;;;;;5045962;28;51167;-52
2022/02/22 11:23:27;;;;;;;;;21.25;19.25;;;;;;;;5039966;28;51458;-52
2022/02/22 11:26:19;;;;;;;;;26.75;23.00;;;;;;;;5044787;28;51277;-53
2022/02/22 11:29:06;;;;;;;;;25.25;19.75;;;;;;;;5038168;28;51163;-54
2022/02/22 11:32:03;;;;;;;;;18.25;14.25;;;;;;;;5040319;28;51217;-53
2022/02/22 11:34:53;;;;;;;;;19.25;17.75;;;;;;;;5039040;28;51638;-52
2022/02/22 11:37:38;;;;;;;;;26.00;22.25;;;;;;;;5039607;28;51789;-50
2022/02/22 11:40:26;;;;;;;;;25.75;21.25;;;;;;;;5049288;28;51297;-49
2022/02/22 11:43:12;;;;;;;;;23.50;19.25;;;;;;;;5040481;28;51163;-49
2022/02/22 11:46:05;;;;;;;;;21.50;19.50;;;;;;;;5038174;28;51572;-52
2022/02/22 11:48:52;;;;;;;;;24.50;18.25;;;;;;;;5038674;28;51124;-52
2022/02/22 11:51:42;;;;;;;;;23.25;21.00;;;;;;;;5039514;28;51033;-52
2022/02/22 11:54:26;;;;;;;;;22.25;17.75;;;;;;;;5039326;28;51108;-54
2022/02/22 11:57:18;;;;;;;;;10.00;5.50;;;;;;;;5042145;28;51179;-51
2022/02/22 12:00:04;;;;;;;;;18.75;15.00;;;;;;;;5045145;28;51146;-52
2022/02/22 12:02:50;;;;;;;;;20.75;15.75;;;;;;;;5045718;28;51391;-53
2022/02/22 12:05:44;;;;;;;;;18.00;17.50;;;;;;;;5048948;28;51370;-53
2022/02/22 12:08:38;;;;;;;;;20.00;18.50;;;;;;;;5043287;28;51226;-55
2022/02/22 12:11:39;;;;;;;;;17.75;14.00;;;;;;;;5042946;28;51990;-52
2022/02/22 12:14:24;;;;;;;;;17.00;16.00;;;;;;;;5059767;28;51075;-56
2022/02/22 12:17:10;;;;;;;;;20.25;17.25;;;;;;;;5047303;28;51432;-53
2022/02/22 12:20:03;;;;;;;;;20.00;16.00;;;;;;;;5049276;28;51202;-54
2022/02/22 12:22:48;;;;;;;;;16.00;13.00;;;;;;;;5049751;28;51136;-49
2022/02/22 12:25:33;;;;;;;;;17.25;16.75;;;;;;;;5045803;28;51147;-55
2022/02/22 12:28:26;;;;;;;;;16.50;13.25;;;;;;;;5052675;28;51540;-53
2022/02/22 12:31:22;;;;;;;;;15.75;13.50;;;;;;;;5048812;28;51052;-53
2022/02/22 12:34:30;;;;;;;;;17.00;14.25;;;;;;;;5052949;28;51188;-55
2022/02/22 12:37:16;;;;;;;;;14.75;14.00;;;;;;;;5051356;28;51114;-50
2022/02/22 12:40:07;;;;;;;;;15.25;13.75;;;;;;;;5055353;28;51144;-52
2022/02/22 12:43:02;;;;;;;;;12.75;11.50;;;;;;;;5049907;28;51652;-52
2022/02/22 12:45:51;;;;;;;;;22.25;18.00;;;;;;;;5049234;28;52525;-53
2022/02/22 12:48:38;;;;;;;;;14.75;13.75;;;;;;;;5047462;28;51120;-51
2022/02/22 12:51:25;;;;;;;;;13.00;13.00;;;;;;;;5052732;28;51052;-54
2022/02/22 12:54:16;;;;;;;;;14.50;12.50;;;;;;;;5046673;28;51844;-52
2022/02/22 12:57:03;;;;;;;;;16.50;12.50;;;;;;;;5043927;28;51516;-51
2022/02/22 12:59:48;;;;;;;;;16.75;13.25;;;;;;;;5048535;28;51100;-52
2022/02/22 13:02:53;;;;;;;;;11.00;9.50;;;;;;;;5044777;28;51555;-51
2022/02/22 13:05:39;;;;;;;;;12.50;10.50;;;;;;;;5046696;28;51638;-54
2022/02/22 13:08:25;;;;;;;;;14.00;13.50;;;;;;;;5039465;28;51217;-55
2022/02/22 13:11:12;;;;;;;;;14.75;13.00;;;;;;;;5040701;28;51172;-51
2022/02/22 13:14:06;;;;;;;;;16.75;13.75;;;;;;;;5042421;28;51191;-52
2022/02/22 13:16:58;;;;;;;;;14.25;13.00;;;;;;;;5040905;28;51479;-54
2022/02/22 13:19:58;;;;;;;;;12.75;10.75;;;;;;;;5047705;28;51546;-55
2022/02/22 13:22:42;;;;;;;;;16.00;13.75;;;;;;;;5045504;28;51343;-51
2022/02/22 13:25:29;;;;;;;;;16.50;12.25;;;;;;;;5042570;28;51080;-52
2022/02/22 13:28:14;;;;;;;;;13.50;12.25;;;;;;;;5039692;28;51358;-54
2022/02/22 13:30:59;;;;;;;;;13.25;12.00;;;;;;;;5042193;28;51151;-54
2022/02/22 13:33:56;;;;;;;;;16.50;13.25;;;;;;;;5041653;28;51112;-53
2022/02/22 13:36:42;;;;;;;;;14.75;12.75;;;;;;;;5041304;28;51254;-51
2022/02/22 13:39:35;;;;;;;;;20.00;12.50;;;;;;;;5043389;28;52511;-50
2022/02/22 13:42:23;;;;;;;;;13.75;12.75;;;;;;;;5040310;28;51198;-55
2022/02/22 13:45:09;;;;;;;;;13.50;13.00;;;;;;;;5047750;28;51220;-54
2022/02/22 13:47:58;;;;;;;;;13.50;9.00;;;;;;;;5051056;28;51334;-53
2022/02/22 13:50:44;;;;;;;;;13.75;8.50;;;;;;;;5050443;28;51174;-54
2022/02/22 13:53:30;;;;;;;;;19.25;13.25;;;;;;;;5048302;28;51354;-54
2022/02/22 13:56:15;;;;;;;;;14.75;9.75;;;;;;;;5048912;28;51699;-54
2022/02/22 13:59:07;;;;;;;;;17.50;13.50;;;;;;;;5043813;28;52698;-53
2022/02/22 14:01:53;;;;;;;;;12.75;12.00;;;;;;;;5043692;28;51615;-50
2022/02/22 14:04:38;;;;;;;;;15.25;12.75;;;;;;;;5046819;28;51236;-53
2022/02/22 14:07:24;;;;;;;;;12.50;7.00;;;;;;;;5040925;28;51213;-52
2022/02/22 14:10:10;;;;;;;;;16.50;14.25;;;;;;;;5041031;28;51698;-49
2022/02/22 14:12:55;;;;;;;;;15.00;13.50;;;;;;;;5046749;28;51178;-54
2022/02/22 14:15:40;;;;;;;;;17.50;14.00;;;;;;;;5047690;28;51144;-51
2022/02/22 14:18:25;;;;;;;;;19.25;12.00;;;;;;;;5044835;28;51098;-52
2022/02/22 14:21:10;;;;;;;;;16.50;14.50;;;;;;;;5049647;28;51158;-53
2022/02/22 14:24:05;;;;;;;;;16.00;13.00;;;;;;;;5049661;28;51810;-51
2022/02/22 14:27:01;;;;;;;;;18.25;16.00;;;;;;;;5046382;28;51114;-55
2022/02/22 14:29:48;;;;;;;;;15.00;12.75;;;;;;;;5043323;28;51084;-53
2022/02/22 14:32:33;;;;;;;;;14.00;12.25;;;;;;;;5040158;28;51043;-53
2022/02/22 14:35:34;;;;;;;;;11.75;10.25;;;;;;;;5037641;28;51305;-51
2022/02/22 14:38:19;;;;;;;;;16.75;10.75;;;;;;;;5044869;28;52800;-50
2022/02/22 14:41:04;;;;;;;;;17.00;14.00;;;;;;;;5045378;28;51016;-54
2022/02/22 14:43:50;;;;;;;;;20.00;14.25;;;;;;;;5039045;28;51344;-54
2022/02/22 14:46:36;;;;;;;;;17.25;13.75;;;;;;;;5039016;28;51107;-54
2022/02/22 14:49:39;;;;;;;;;13.00;10.75;;;;;;;;5038918;28;51441;-49
2022/02/22 14:52:36;;;;;;;;;16.50;12.00;;;;;;;;5038848;28;51100;-52
2022/02/22 14:55:20;;;;;;;;;18.00;11.50;;;;;;;;5039910;28;51079;-52
2022/02/22 14:58:07;;;;;;;;;15.50;12.50;;;;;;;;5040668;28;51178;-49
2022/02/22 15:01:01;;;;;;;;;18.25;14.25;;;;;;;;5040078;28;51371;-51
2022/02/22 15:03:46;;;;;;;;;13.50;11.75;;;;;;;;5039827;28;51100;-49
2022/02/22 15:06:37;;;;;;;;;16.50;13.50;;;;;;;;5038376;28;51316;-51
2022/02/22 15:09:23;;;;;;;;;14.00;11.75;;;;;;;;5040018;28;51073;-52
2022/02/22 15:12:07;;;;;;;;;15.50;13.00;;;;;;;;5043597;28;51100;-55
2022/02/22 15:14:51;;;;;;;;;15.50;12.75;;;;;;;;5038347;28;51535;-50
2022/02/22 15:17:36;;;;;;;;;17.00;15.00;;;;;;;;5038274;28;51135;-53
2022/02/22 15:20:29;;;;;;;;;14.00;11.00;;;;;;;;5040425;28;51190;-55
2022/02/22 15:23:17;;;;;;;;;18.75;15.25;;;;;;;;5040773;28;51139;-52
2022/02/22 15:26:08;;;;;;;;;14.75;12.75;;;;;;;;5057846;28;51230;-51
2022/02/22 15:28:55;;;;;;;;;16.00;14.00;;;;;;;;5043585;28;51033;-50
2022/02/22 15:31:39;;;;;;;;;17.50;14.50;;;;;;;;5046547;28;51230;-54
2022/02/22 15:34:25;;;;;;;;;15.75;14.75;;;;;;;;5041796;28;51379;-48
2022/02/22 15:37:35;;;;;;;;;19.50;14.00;;;;;;;;5042491;28;51118;-51
2022/02/22 15:40:24;;;;;;;;;18.00;16.00;;;;;;;;5058970;28;51548;-54
2022/02/22 15:43:10;;;;;;;;;18.00;16.50;;;;;;;;5042088;28;51092;-52
2022/02/22 15:46:11;;;;;;;;;11.75;10.00;;;;;;;;5044275;28;51148;-53
2022/02/22 15:49:16;;;;;;;;;22.00;15.75;;;;;;;;5053163;28;51070;-50
2022/02/22 15:52:07;;;;;;;;;14.25;12.50;;;;;;;;5047312;28;51175;-54
2022/02/22 15:54:51;;;;;;;;;17.00;13.25;;;;;;;;5051346;28;51238;-53
2022/02/22 15:57:36;;;;;;;;;16.50;10.25;;;;;;;;5049341;28;51115;-52
2022/02/22 16:00:20;;;;;;;;;17.50;15.50;;;;;;;;5053349;28;51094;-51
2022/02/22 16:03:04;;;;;;;;;15.00;14.50;;;;;;;;5054956;28;51134;-50
2022/02/22 16:05:52;;;;;;;;;19.00;14.00;;;;;;;;5057470;28;51174;-52
2022/02/22 16:08:37;;;;;;;;;16.75;15.00;;;;;;;;5054975;28;51151;-50
2022/02/22 16:11:22;;;;;;;;;16.25;12.75;;;;;;;;5052167;28;51645;-52
2022/02/22 16:14:08;;;;;;;;;14.75;14.75;;;;;;;;5051188;28;51038;-53
2022/02/22 16:16:55;;;;;;;;;16.75;14.00;;;;;;;;5055846;28;51186;-53
2022/02/22 16:19:39;;;;;;;;;13.75;12.75;;;;;;;;5056445;28;51260;-50